Time;durP1;ratioP1;P1;durP2;ratioP2;P2;SDS_P1;SDS_P2;PMS_P1;PMS_P2;Temp;Humidity;BMP_temperature;BMP_pressure;BME280_temperature;BME280_humidity;BME280_pressure;Samples;Min_cycle;Max_cycle;Signal;HPM_P1;HPM_P2
2022/11/23 00:00:33;;;;;;;;;6.25;2.00;;;;;;;;5080786;27;45950;-74
2022/11/23 00:02:59;;;;;;;;;5.00;2.50;;;;;;;;5089291;27;45272;-76
2022/11/23 00:05:25;;;;;;;;;3.00;1.00;;;;;;;;5081178;27;45330;-76
2022/11/23 00:07:50;;;;;;;;;3.25;2.00;;;;;;;;5080514;27;45338;-77
2022/11/23 00:10:16;;;;;;;;;3.00;2.00;;;;;;;;5081801;27;46089;-76
2022/11/23 00:12:41;;;;;;;;;3.50;2.25;;;;;;;;5080795;27;45354;-73
2022/11/23 00:15:06;;;;;;;;;9.00;2.00;;;;;;;;5080540;27;45266;-76
2022/11/23 00:17:32;;;;;;;;;5.00;2.50;;;;;;;;5082185;27;45232;-74
2022/11/23 00:19:57;;;;;;;;;3.00;3.00;;;;;;;;5080465;27;45296;-74
2022/11/23 00:22:22;;;;;;;;;7.00;3.75;;;;;;;;5082410;27;45216;-74
2022/11/23 00:24:48;;;;;;;;;3.50;2.00;;;;;;;;5096194;27;45206;-74
2022/11/23 00:27:13;;;;;;;;;5.50;4.00;;;;;;;;5089721;27;45431;-74
2022/11/23 00:29:38;;;;;;;;;10.50;3.00;;;;;;;;5092331;27;45188;-74
2022/11/23 00:32:03;;;;;;;;;3.00;2.25;;;;;;;;5088298;27;45357;-73
2022/11/23 00:34:28;;;;;;;;;4.00;4.00;;;;;;;;5085109;27;45291;-73
2022/11/23 00:36:53;;;;;;;;;4.00;4.00;;;;;;;;5082358;27;45438;-74
2022/11/23 00:39:19;;;;;;;;;5.25;4.00;;;;;;;;5079825;27;46262;-74
2022/11/23 00:41:44;;;;;;;;;4.00;3.25;;;;;;;;5082600;27;45688;-74
2022/11/23 00:44:09;;;;;;;;;7.50;4.00;;;;;;;;5080139;27;45324;-74
2022/11/23 00:46:34;;;;;;;;;2.00;2.00;;;;;;;;5083081;27;45548;-75
2022/11/23 00:49:00;;;;;;;;;7.50;3.00;;;;;;;;5079649;27;45395;-75
2022/11/23 00:51:28;;;;;;;;;8.75;5.00;;;;;;;;5084718;27;45345;-74
2022/11/23 00:53:53;;;;;;;;;8.00;3.50;;;;;;;;5090560;27;45433;-74
2022/11/23 00:56:19;;;;;;;;;6.50;5.25;;;;;;;;5081230;27;45498;-75
2022/11/23 00:58:49;;;;;;;;;5.50;2.00;;;;;;;;5084134;27;45381;-74
2022/11/23 01:01:14;;;;;;;;;4.50;3.75;;;;;;;;5084411;27;45267;-74
2022/11/23 01:03:42;;;;;;;;;3.00;3.00;;;;;;;;5085641;27;45174;-75
2022/11/23 01:06:11;;;;;;;;;4.00;3.00;;;;;;;;5086091;27;45464;-74
2022/11/23 01:08:37;;;;;;;;;5.25;3.00;;;;;;;;5099052;27;45308;-74
2022/11/23 01:11:04;;;;;;;;;8.50;3.75;;;;;;;;5087416;27;45275;-74
2022/11/23 01:13:29;;;;;;;;;8.50;3.75;;;;;;;;5082973;27;45595;-74
2022/11/23 01:15:54;;;;;;;;;6.75;4.00;;;;;;;;5091889;27;45382;-74
2022/11/23 01:18:20;;;;;;;;;2.00;2.00;;;;;;;;5086184;27;46766;-75
2022/11/23 01:20:45;;;;;;;;;3.00;3.00;;;;;;;;5080803;27;45461;-74
2022/11/23 01:23:10;;;;;;;;;2.00;2.00;;;;;;;;5098528;27;45169;-75
2022/11/23 01:25:35;;;;;;;;;3.00;3.00;;;;;;;;5084981;27;45234;-75
2022/11/23 01:28:01;;;;;;;;;7.00;3.00;;;;;;;;5079003;27;45825;-74
2022/11/23 01:30:26;;;;;;;;;3.50;2.50;;;;;;;;5081822;27;45419;-74
2022/11/23 01:32:51;;;;;;;;;4.00;3.00;;;;;;;;5079248;27;45173;-75
2022/11/23 01:35:16;;;;;;;;;5.00;2.75;;;;;;;;5083373;27;45519;-74
2022/11/23 01:37:41;;;;;;;;;9.00;4.75;;;;;;;;5079516;27;45496;-74
2022/11/23 01:40:07;;;;;;;;;7.75;3.25;;;;;;;;5086680;27;45310;-74
2022/11/23 01:42:58;;;;;;;;;4.75;3.00;;;;;;;;5086198;27;45338;-75
2022/11/23 01:45:33;;;;;;;;;5.50;2.75;;;;;;;;5076345;27;46093;-74
2022/11/23 01:47:58;;;;;;;;;3.25;1.75;;;;;;;;5083551;27;45726;-74
2022/11/23 01:50:24;;;;;;;;;3.25;3.25;;;;;;;;5081411;27;45209;-74
2022/11/23 01:52:49;;;;;;;;;4.75;3.50;;;;;;;;5079231;27;45231;-74
2022/11/23 01:55:16;;;;;;;;;9.00;5.50;;;;;;;;5077279;27;46248;-74
2022/11/23 01:57:43;;;;;;;;;4.75;4.00;;;;;;;;5088015;27;46206;-74
2022/11/23 02:00:08;;;;;;;;;4.00;2.50;;;;;;;;5087895;27;45476;-74
2022/11/23 02:02:35;;;;;;;;;5.75;3.00;;;;;;;;5078585;27;45399;-74
2022/11/23 02:05:00;;;;;;;;;6.50;2.00;;;;;;;;5093271;27;45404;-74
2022/11/23 02:07:27;;;;;;;;;6.75;3.50;;;;;;;;5083488;27;45305;-74
2022/11/23 02:09:52;;;;;;;;;4.25;3.00;;;;;;;;5078373;27;45397;-74
2022/11/23 02:12:17;;;;;;;;;3.50;3.50;;;;;;;;5085627;27;45239;-74
2022/11/23 02:14:43;;;;;;;;;8.25;4.75;;;;;;;;5078545;27;45497;-75
2022/11/23 02:17:08;;;;;;;;;4.00;4.00;;;;;;;;5083015;27;46154;-74
2022/11/23 02:19:39;;;;;;;;;4.75;2.50;;;;;;;;5078777;27;45280;-74
2022/11/23 02:22:13;;;;;;;;;3.50;3.50;;;;;;;;5086772;27;45542;-74
2022/11/23 02:24:41;;;;;;;;;7.00;3.25;;;;;;;;5078424;27;45358;-74
2022/11/23 02:27:06;;;;;;;;;2.25;2.25;;;;;;;;5087818;27;46292;-74
2022/11/23 02:29:33;;;;;;;;;10.75;3.00;;;;;;;;5085550;27;45219;-74
2022/11/23 02:31:58;;;;;;;;;8.75;5.00;;;;;;;;5083689;27;45381;-74
2022/11/23 02:34:23;;;;;;;;;9.00;4.00;;;;;;;;5079878;27;45224;-74
2022/11/23 02:36:50;;;;;;;;;5.75;5.75;;;;;;;;5081696;27;45331;-75
2022/11/23 02:39:21;;;;;;;;;8.00;4.00;;;;;;;;5081561;27;45165;-75
2022/11/23 02:41:48;;;;;;;;;7.50;5.25;;;;;;;;5084334;27;45358;-74
2022/11/23 02:44:25;;;;;;;;;15.00;8.25;;;;;;;;5081684;27;45442;-74
2022/11/23 02:46:51;;;;;;;;;6.75;4.00;;;;;;;;5089576;27;46205;-74
2022/11/23 02:49:16;;;;;;;;;8.25;6.75;;;;;;;;5085056;27;45315;-73
2022/11/23 02:51:41;;;;;;;;;7.25;7.25;;;;;;;;5084584;27;45677;-74
2022/11/23 02:54:07;;;;;;;;;8.00;7.00;;;;;;;;5085875;27;45295;-75
2022/11/23 02:56:32;;;;;;;;;6.75;4.00;;;;;;;;5087191;27;46689;-74
2022/11/23 02:58:57;;;;;;;;;7.50;7.50;;;;;;;;5088339;27;45360;-74
2022/11/23 03:01:22;;;;;;;;;9.25;7.75;;;;;;;;5089171;27;45583;-74
2022/11/23 03:03:48;;;;;;;;;5.50;4.25;;;;;;;;5089930;27;45378;-74
2022/11/23 03:06:13;;;;;;;;;12.25;7.75;;;;;;;;5092454;27;45420;-74
2022/11/23 03:08:38;;;;;;;;;10.00;5.75;;;;;;;;5081402;27;44803;-74
2022/11/23 03:11:03;;;;;;;;;6.50;4.00;;;;;;;;5085178;27;45334;-75
2022/11/23 03:13:28;;;;;;;;;5.25;5.25;;;;;;;;5083635;27;45410;-74
2022/11/23 03:15:55;;;;;;;;;9.25;4.75;;;;;;;;5084121;27;45449;-74
2022/11/23 03:18:21;;;;;;;;;8.50;6.75;;;;;;;;5081289;27;45460;-74
2022/11/23 03:20:46;;;;;;;;;11.00;6.75;;;;;;;;5083998;27;45438;-74
2022/11/23 03:23:11;;;;;;;;;7.00;4.25;;;;;;;;5084967;27;45789;-74
2022/11/23 03:25:36;;;;;;;;;4.00;4.00;;;;;;;;5082825;27;46299;-74
2022/11/23 03:28:01;;;;;;;;;12.00;7.75;;;;;;;;5081984;27;45253;-74
2022/11/23 03:30:27;;;;;;;;;7.50;7.00;;;;;;;;5081175;27;45245;-74
2022/11/23 03:32:52;;;;;;;;;4.75;3.00;;;;;;;;5085372;27;45232;-74
2022/11/23 03:35:17;;;;;;;;;3.50;3.25;;;;;;;;5086202;27;47320;-73
2022/11/23 03:37:42;;;;;;;;;5.50;4.75;;;;;;;;5081066;27;45312;-74
2022/11/23 03:40:08;;;;;;;;;9.25;5.25;;;;;;;;5081477;27;45675;-74
2022/11/23 03:42:33;;;;;;;;;6.75;6.00;;;;;;;;5080402;27;45634;-74
2022/11/23 03:44:58;;;;;;;;;7.50;6.50;;;;;;;;5081163;27;45456;-74
2022/11/23 03:47:23;;;;;;;;;9.00;4.00;;;;;;;;5082436;27;45295;-75
2022/11/23 03:49:49;;;;;;;;;7.25;7.25;;;;;;;;5079302;27;45308;-75
2022/11/23 03:52:14;;;;;;;;;7.25;5.00;;;;;;;;5092185;27;45226;-75
2022/11/23 03:54:39;;;;;;;;;5.75;5.25;;;;;;;;5080724;27;46313;-74
2022/11/23 03:57:04;;;;;;;;;4.25;4.00;;;;;;;;5089834;27;45235;-74
2022/11/23 03:59:29;;;;;;;;;7.00;5.25;;;;;;;;5081006;27;45204;-74
2022/11/23 04:01:55;;;;;;;;;4.50;4.50;;;;;;;;5083283;27;45403;-74
2022/11/23 04:04:20;;;;;;;;;9.00;5.00;;;;;;;;5093426;27;45337;-74
2022/11/23 04:06:45;;;;;;;;;8.25;5.00;;;;;;;;5091047;27;45500;-74
2022/11/23 04:09:11;;;;;;;;;4.25;4.00;;;;;;;;5097969;27;45161;-74
2022/11/23 04:11:36;;;;;;;;;11.00;5.50;;;;;;;;5091039;27;45477;-74
2022/11/23 04:14:01;;;;;;;;;5.50;5.50;;;;;;;;5083956;27;45182;-74
2022/11/23 04:16:26;;;;;;;;;7.75;7.00;;;;;;;;5086932;27;45383;-74
2022/11/23 04:18:52;;;;;;;;;5.50;4.25;;;;;;;;5080684;27;45266;-74
2022/11/23 04:21:17;;;;;;;;;9.50;7.25;;;;;;;;5082779;27;46580;-74
2022/11/23 04:23:42;;;;;;;;;4.25;4.00;;;;;;;;5079101;27;46430;-74
2022/11/23 04:26:07;;;;;;;;;10.25;7.50;;;;;;;;5089911;27;45353;-74
2022/11/23 04:28:32;;;;;;;;;11.00;9.00;;;;;;;;5079068;27;45261;-74
2022/11/23 04:30:58;;;;;;;;;8.50;5.25;;;;;;;;5082338;27;45421;-74
2022/11/23 04:33:23;;;;;;;;;9.00;7.50;;;;;;;;5080247;28;45315;-74
2022/11/23 04:35:48;;;;;;;;;7.25;5.25;;;;;;;;5087224;27;45378;-74
2022/11/23 04:38:13;;;;;;;;;8.50;7.00;;;;;;;;5085001;27;45568;-74
2022/11/23 04:40:38;;;;;;;;;9.25;5.25;;;;;;;;5082291;27;45477;-74
2022/11/23 04:43:05;;;;;;;;;11.50;7.75;;;;;;;;5088008;27;45350;-74
2022/11/23 04:45:30;;;;;;;;;8.00;6.75;;;;;;;;5080760;27;45410;-73
2022/11/23 04:47:55;;;;;;;;;6.25;5.50;;;;;;;;5083491;27;45308;-74
2022/11/23 04:50:20;;;;;;;;;7.00;7.00;;;;;;;;5082091;27;45262;-76
2022/11/23 04:52:46;;;;;;;;;6.50;4.25;;;;;;;;5080195;27;45426;-74
2022/11/23 04:55:11;;;;;;;;;9.75;6.00;;;;;;;;5080409;27;45422;-74
2022/11/23 04:57:36;;;;;;;;;5.50;4.25;;;;;;;;5085118;27;45453;-74
2022/11/23 05:00:02;;;;;;;;;14.25;9.00;;;;;;;;5097214;27;45775;-74
2022/11/23 05:02:27;;;;;;;;;8.25;6.00;;;;;;;;5086024;27;47122;-74
2022/11/23 05:04:52;;;;;;;;;5.50;4.50;;;;;;;;5090989;27;45462;-74
2022/11/23 05:07:18;;;;;;;;;6.50;4.00;;;;;;;;5085211;27;45374;-75
2022/11/23 05:09:43;;;;;;;;;7.00;5.00;;;;;;;;5079530;27;45187;-74
2022/11/23 05:12:08;;;;;;;;;7.25;5.00;;;;;;;;5081579;27;46271;-73
2022/11/23 05:14:33;;;;;;;;;9.50;5.00;;;;;;;;5083876;27;45187;-74
2022/11/23 05:16:58;;;;;;;;;5.00;5.00;;;;;;;;5090681;27;45407;-77
2022/11/23 05:19:24;;;;;;;;;7.25;5.25;;;;;;;;5079447;27;45583;-74
2022/11/23 05:21:49;;;;;;;;;13.75;8.25;;;;;;;;5081507;27;45413;-74
2022/11/23 05:24:14;;;;;;;;;9.75;8.00;;;;;;;;5079284;27;45315;-75
2022/11/23 05:26:39;;;;;;;;;11.75;9.00;;;;;;;;5081671;27;45417;-74
2022/11/23 05:29:04;;;;;;;;;14.25;10.50;;;;;;;;5079279;27;45215;-74
2022/11/23 05:31:29;;;;;;;;;16.00;9.75;;;;;;;;5084672;27;45331;-74
2022/11/23 05:33:55;;;;;;;;;10.75;10.75;;;;;;;;5086739;27;45188;-74
2022/11/23 05:36:20;;;;;;;;;9.50;8.75;;;;;;;;5084140;27;45280;-74
2022/11/23 05:38:45;;;;;;;;;10.00;7.25;;;;;;;;5079178;27;45406;-73
2022/11/23 05:41:10;;;;;;;;;9.00;9.00;;;;;;;;5080994;27;45322;-74
2022/11/23 05:43:35;;;;;;;;;10.75;7.50;;;;;;;;5078927;27;45439;-74
2022/11/23 05:46:01;;;;;;;;;7.75;5.00;;;;;;;;5082657;27;45339;-74
2022/11/23 05:48:26;;;;;;;;;9.00;7.00;;;;;;;;5089289;27;45228;-74
2022/11/23 05:50:52;;;;;;;;;9.25;7.00;;;;;;;;5084760;27;45492;-74
2022/11/23 05:53:17;;;;;;;;;7.00;7.00;;;;;;;;5078916;27;45247;-75
2022/11/23 05:55:42;;;;;;;;;8.25;7.00;;;;;;;;5079230;27;45399;-74
2022/11/23 05:58:07;;;;;;;;;9.50;7.00;;;;;;;;5084642;27;45478;-74
2022/11/23 06:00:33;;;;;;;;;4.25;3.50;;;;;;;;5079048;27;45330;-74
2022/11/23 06:02:59;;;;;;;;;6.25;6.25;;;;;;;;5078745;28;45426;-74
2022/11/23 06:05:25;;;;;;;;;10.00;8.25;;;;;;;;5081094;27;45308;-74
2022/11/23 06:07:53;;;;;;;;;7.00;7.00;;;;;;;;5078895;27;45321;-75
2022/11/23 06:10:18;;;;;;;;;8.00;7.75;;;;;;;;5079629;27;46524;-74
2022/11/23 06:12:44;;;;;;;;;8.75;7.00;;;;;;;;5080888;27;45221;-74
2022/11/23 06:15:10;;;;;;;;;11.50;6.50;;;;;;;;5082638;27;45624;-74
2022/11/23 06:17:35;;;;;;;;;6.50;5.50;;;;;;;;5084325;27;45222;-72
2022/11/23 06:20:00;;;;;;;;;8.75;7.50;;;;;;;;5082219;27;46060;-74
2022/11/23 06:22:25;;;;;;;;;14.25;11.75;;;;;;;;5084474;27;45165;-73
2022/11/23 06:24:51;;;;;;;;;5.75;5.75;;;;;;;;5080929;27;45289;-73
2022/11/23 06:27:16;;;;;;;;;11.00;9.75;;;;;;;;5084287;27;45233;-74
2022/11/23 06:29:41;;;;;;;;;11.50;9.25;;;;;;;;5080496;27;47250;-74
2022/11/23 06:32:07;;;;;;;;;7.75;7.00;;;;;;;;5085368;27;45485;-73
2022/11/23 06:34:32;;;;;;;;;4.00;3.00;;;;;;;;5086939;27;45502;-74
2022/11/23 06:36:58;;;;;;;;;5.00;4.50;;;;;;;;5084183;27;45397;-74
2022/11/23 06:39:23;;;;;;;;;7.00;5.50;;;;;;;;5081797;27;46299;-74
2022/11/23 06:41:48;;;;;;;;;10.75;9.25;;;;;;;;5084029;27;45480;-74
2022/11/23 06:44:13;;;;;;;;;8.50;5.25;;;;;;;;5083882;27;45269;-73
2022/11/23 06:46:38;;;;;;;;;8.50;7.00;;;;;;;;5084119;27;45413;-73
2022/11/23 06:49:04;;;;;;;;;11.25;9.00;;;;;;;;5082984;27;45633;-73
2022/11/23 06:51:29;;;;;;;;;6.75;5.00;;;;;;;;5084205;27;45274;-74
2022/11/23 06:53:54;;;;;;;;;8.00;7.00;;;;;;;;5081514;27;44795;-74
2022/11/23 06:56:19;;;;;;;;;12.75;12.75;;;;;;;;5085186;27;45374;-74
2022/11/23 06:58:44;;;;;;;;;10.00;10.00;;;;;;;;5086072;27;45968;-74
2022/11/23 07:01:10;;;;;;;;;17.75;15.25;;;;;;;;5081630;27;45504;-75
2022/11/23 07:03:35;;;;;;;;;15.75;11.00;;;;;;;;5081710;27;45348;-76
2022/11/23 07:06:09;;;;;;;;;11.25;10.00;;;;;;;;5083623;27;46601;-76
2022/11/23 07:08:38;;;;;;;;;11.00;11.00;;;;;;;;5088004;27;46119;-76
2022/11/23 07:11:05;;;;;;;;;15.00;12.75;;;;;;;;5082297;27;45410;-76
2022/11/23 07:13:31;;;;;;;;;7.50;7.00;;;;;;;;5093547;27;45247;-74
2022/11/23 07:15:57;;;;;;;;;8.75;8.75;;;;;;;;5083404;27;45724;-75
2022/11/23 07:18:23;;;;;;;;;8.00;8.00;;;;;;;;5081299;27;45492;-75
2022/11/23 07:20:48;;;;;;;;;8.25;8.25;;;;;;;;5083595;27;45504;-75
2022/11/23 07:23:13;;;;;;;;;15.00;12.50;;;;;;;;5080648;27;45359;-75
2022/11/23 07:25:39;;;;;;;;;9.00;6.50;;;;;;;;5083140;27;46296;-75
2022/11/23 07:28:05;;;;;;;;;14.75;13.50;;;;;;;;5081016;27;45436;-76
2022/11/23 07:30:31;;;;;;;;;10.25;8.75;;;;;;;;5083635;27;45547;-75
2022/11/23 07:33:03;;;;;;;;;7.00;4.50;;;;;;;;5079762;27;45326;-76
2022/11/23 07:35:29;;;;;;;;;9.00;8.25;;;;;;;;5087925;27;45360;-75
2022/11/23 07:37:54;;;;;;;;;9.00;5.75;;;;;;;;5080596;27;45466;-76
2022/11/23 07:40:19;;;;;;;;;10.75;6.75;;;;;;;;5081958;27;45333;-76
2022/11/23 07:42:44;;;;;;;;;7.25;5.50;;;;;;;;5082203;27;45397;-76
2022/11/23 07:45:10;;;;;;;;;5.00;5.00;;;;;;;;5081201;27;45291;-77
2022/11/23 07:47:36;;;;;;;;;6.25;5.50;;;;;;;;5082759;27;45282;-76
2022/11/23 07:50:01;;;;;;;;;7.50;6.00;;;;;;;;5080525;27;44645;-76
2022/11/23 07:52:26;;;;;;;;;8.75;5.50;;;;;;;;5083373;27;45347;-76
2022/11/23 07:54:52;;;;;;;;;10.25;6.50;;;;;;;;5079193;27;45369;-76
2022/11/23 07:57:17;;;;;;;;;9.00;5.00;;;;;;;;5087147;27;45523;-76
2022/11/23 07:59:42;;;;;;;;;7.75;6.25;;;;;;;;5080967;27;45414;-76
2022/11/23 08:02:09;;;;;;;;;10.00;7.25;;;;;;;;5082445;27;44776;-76
2022/11/23 08:04:34;;;;;;;;;10.75;9.00;;;;;;;;5081338;27;45165;-76
2022/11/23 08:07:01;;;;;;;;;7.50;5.00;;;;;;;;5082989;27;45574;-77
2022/11/23 08:09:26;;;;;;;;;3.00;3.00;;;;;;;;5080640;27;45284;-76
2022/11/23 08:11:51;;;;;;;;;6.25;6.25;;;;;;;;5081921;27;45459;-76
2022/11/23 08:14:17;;;;;;;;;4.75;4.75;;;;;;;;5080743;27;45239;-76
2022/11/23 08:16:42;;;;;;;;;4.75;4.00;;;;;;;;5082580;27;46281;-77
2022/11/23 08:19:07;;;;;;;;;4.75;4.00;;;;;;;;5079067;27;45207;-76
2022/11/23 08:21:32;;;;;;;;;9.00;6.00;;;;;;;;5086340;27;45393;-76
2022/11/23 08:23:57;;;;;;;;;6.25;4.00;;;;;;;;5085087;27;45254;-76
2022/11/23 08:26:22;;;;;;;;;3.75;3.75;;;;;;;;5090762;27;46434;-77
2022/11/23 08:28:48;;;;;;;;;4.75;3.50;;;;;;;;5086537;27;45238;-76
2022/11/23 08:31:13;;;;;;;;;7.75;5.00;;;;;;;;5090847;27;45252;-76
2022/11/23 08:33:39;;;;;;;;;6.25;6.00;;;;;;;;5080473;27;45710;-76
2022/11/23 08:36:05;;;;;;;;;7.00;5.00;;;;;;;;5086367;27;45437;-76
2022/11/23 08:38:30;;;;;;;;;6.25;5.50;;;;;;;;5083958;27;45302;-75
2022/11/23 08:41:02;;;;;;;;;9.25;5.00;;;;;;;;5082467;27;45505;-76
2022/11/23 08:43:27;;;;;;;;;9.00;5.00;;;;;;;;5092136;27;45239;-76
2022/11/23 08:45:54;;;;;;;;;5.50;5.50;;;;;;;;5084862;27;45535;-76
2022/11/23 08:48:19;;;;;;;;;6.50;6.50;;;;;;;;5079994;27;45330;-76
2022/11/23 08:50:44;;;;;;;;;8.25;4.25;;;;;;;;5082312;27;45346;-76
2022/11/23 08:53:09;;;;;;;;;4.00;4.00;;;;;;;;5080141;28;45437;-76
2022/11/23 08:55:34;;;;;;;;;5.00;4.25;;;;;;;;5090472;27;45609;-76
2022/11/23 08:58:00;;;;;;;;;6.00;4.50;;;;;;;;5085277;27;45428;-76
2022/11/23 09:00:25;;;;;;;;;5.00;4.00;;;;;;;;5081089;27;45271;-76
2022/11/23 09:02:50;;;;;;;;;4.00;4.00;;;;;;;;5088238;27;45745;-75
2022/11/23 09:05:16;;;;;;;;;4.00;4.00;;;;;;;;5097307;27;46155;-77
2022/11/23 09:07:41;;;;;;;;;5.00;3.00;;;;;;;;5080219;27;45474;-77
2022/11/23 09:10:06;;;;;;;;;2.75;2.75;;;;;;;;5077514;27;45466;-79
2022/11/23 09:12:32;;;;;;;;;1.25;1.00;;;;;;;;5081174;27;45307;-79
2022/11/23 09:14:57;;;;;;;;;4.00;3.50;;;;;;;;5085101;27;45937;-79
2022/11/23 09:17:22;;;;;;;;;4.75;3.00;;;;;;;;5089935;27;45314;-80
2022/11/23 09:19:49;;;;;;;;;5.25;4.00;;;;;;;;5084191;27;45370;-79
2022/11/23 09:22:14;;;;;;;;;3.25;2.75;;;;;;;;5080502;27;45452;-79
2022/11/23 09:24:39;;;;;;;;;2.00;2.00;;;;;;;;5079701;27;45360;-80
2022/11/23 09:27:04;;;;;;;;;3.00;3.00;;;;;;;;5081116;27;45303;-80
2022/11/23 09:29:29;;;;;;;;;3.00;3.00;;;;;;;;5093748;27;45541;-81
2022/11/23 09:31:55;;;;;;;;;4.75;3.25;;;;;;;;5081504;27;45243;-82
2022/11/23 09:34:20;;;;;;;;;3.00;3.00;;;;;;;;5086318;27;46736;-79
2022/11/23 09:36:45;;;;;;;;;3.00;2.75;;;;;;;;5081571;27;45366;-82
2022/11/23 09:39:10;;;;;;;;;4.50;3.50;;;;;;;;5079274;27;45153;-82
2022/11/23 09:41:55;;;;;;;;;3.00;3.00;;;;;;;;5085808;27;45243;-83
2022/11/23 09:44:23;;;;;;;;;8.00;3.75;;;;;;;;5079330;28;45236;-82
2022/11/23 09:46:57;;;;;;;;;3.00;3.00;;;;;;;;5081255;27;45388;-82
2022/11/23 09:49:27;;;;;;;;;2.50;2.00;;;;;;;;5079308;27;45262;-84
2022/11/23 09:51:54;;;;;;;;;5.75;4.00;;;;;;;;5084418;27;45524;-81
2022/11/23 09:54:30;;;;;;;;;3.75;3.00;;;;;;;;5079342;27;45636;-83
2022/11/23 09:56:56;;;;;;;;;4.00;4.00;;;;;;;;5086831;27;45428;-83
2022/11/23 09:59:21;;;;;;;;;3.25;2.00;;;;;;;;5090607;27;44760;-83
2022/11/23 10:01:46;;;;;;;;;4.00;4.00;;;;;;;;5096233;27;44815;-84
2022/11/23 10:04:16;;;;;;;;;4.00;4.00;;;;;;;;5093550;27;47324;-81
2022/11/23 10:06:42;;;;;;;;;3.75;3.50;;;;;;;;5081260;27;45361;-79
2022/11/23 10:09:13;;;;;;;;;5.75;4.25;;;;;;;;5080710;27;45255;-81
2022/11/23 10:11:41;;;;;;;;;11.25;9.75;;;;;;;;5087000;27;47453;-81
2022/11/23 10:14:14;;;;;;;;;10.00;7.00;;;;;;;;5077360;27;47102;-87
2022/11/23 10:17:06;;;;;;;;;5.00;4.25;;;;;;;;5087232;27;45418;-79
2022/11/23 10:19:54;;;;;;;;;5.00;5.00;;;;;;;;5053541;27;45344;-82
2022/11/23 10:22:39;;;;;;;;;4.25;4.25;;;;;;;;5064291;27;45392;-84
2022/11/23 10:25:13;;;;;;;;;4.25;2.75;;;;;;;;5095045;27;47340;-83
2022/11/23 10:27:38;;;;;;;;;8.75;6.25;;;;;;;;5080459;27;45530;-84
2022/11/23 10:30:05;;;;;;;;;4.25;4.25;;;;;;;;5075652;27;45726;-80
2022/11/23 10:32:45;;;;;;;;;5.00;5.00;;;;;;;;5083531;27;46499;-82
2022/11/23 10:35:11;;;;;;;;;9.75;5.00;;;;;;;;5091463;27;45411;-84
2022/11/23 10:37:38;;;;;;;;;8.00;8.00;;;;;;;;5086125;27;44816;-83
2022/11/23 10:40:03;;;;;;;;;10.25;9.50;;;;;;;;5091709;27;45335;-85
2022/11/23 10:42:34;;;;;;;;;5.75;5.75;;;;;;;;5081857;27;45395;-82
2022/11/23 10:45:00;;;;;;;;;19.75;17.75;;;;;;;;5083338;27;45373;-83
2022/11/23 10:47:33;;;;;;;;;8.25;8.25;;;;;;;;5089900;27;45258;-85
2022/11/23 10:49:58;;;;;;;;;6.25;6.25;;;;;;;;5095161;27;45463;-84
2022/11/23 10:52:28;;;;;;;;;4.00;3.50;;;;;;;;5094404;27;45977;-81
2022/11/23 10:54:54;;;;;;;;;6.25;6.25;;;;;;;;5087847;27;46136;-81
2022/11/23 10:57:38;;;;;;;;;4.75;4.00;;;;;;;;5095563;27;44912;-83
2022/11/23 11:00:06;;;;;;;;;4.00;4.00;;;;;;;;5082561;27;45231;-83
2022/11/23 11:02:45;;;;;;;;;34.50;26.00;;;;;;;;5090597;27;45364;-83
2022/11/23 11:05:31;;;;;;;;;8.75;7.00;;;;;;;;5082244;27;45416;-82
2022/11/23 11:07:58;;;;;;;;;5.75;5.00;;;;;;;;5080874;27;45368;-81
2022/11/23 11:10:31;;;;;;;;;19.75;18.50;;;;;;;;5083052;27;45461;-82
2022/11/23 11:12:57;;;;;;;;;19.50;17.00;;;;;;;;5085647;27;45498;-84
2022/11/23 11:15:22;;;;;;;;;14.00;10.50;;;;;;;;5098615;27;45472;-82
2022/11/23 11:17:53;;;;;;;;;6.00;6.00;;;;;;;;5088550;27;45304;-83
2022/11/23 11:20:32;;;;;;;;;5.50;5.00;;;;;;;;5087472;27;45316;-81
2022/11/23 11:23:02;;;;;;;;;9.25;7.00;;;;;;;;5081382;27;45375;-82
2022/11/23 11:25:35;;;;;;;;;5.75;4.00;;;;;;;;5096479;27;45381;-84
2022/11/23 11:28:14;;;;;;;;;8.25;6.00;;;;;;;;5081269;27;45370;-84
2022/11/23 11:30:59;;;;;;;;;3.50;2.00;;;;;;;;5081448;27;45318;-85
2022/11/23 11:33:43;;;;;;;;;2.00;2.00;;;;;;;;5079567;27;45535;-82
2022/11/23 11:36:12;;;;;;;;;2.50;2.00;;;;;;;;5086323;27;45478;-83
2022/11/23 11:38:40;;;;;;;;;2.00;2.00;;;;;;;;5081070;27;45364;-83
2022/11/23 11:41:10;;;;;;;;;2.00;2.00;;;;;;;;5083748;27;45328;-83
2022/11/23 11:43:45;;;;;;;;;2.00;2.00;;;;;;;;5081355;27;45214;-85
2022/11/23 11:46:14;;;;;;;;;3.00;1.00;;;;;;;;5086945;27;47363;-82
2022/11/23 11:48:39;;;;;;;;;2.00;2.00;;;;;;;;5081094;27;45433;-83
2022/11/23 11:51:26;;;;;;;;;2.00;2.00;;;;;;;;5081637;27;45409;-84
2022/11/23 11:53:55;;;;;;;;;2.75;2.25;;;;;;;;5083137;27;45552;-82
2022/11/23 11:56:33;;;;;;;;;2.00;2.00;;;;;;;;5089863;27;47909;-81
2022/11/23 11:59:08;;;;;;;;;2.00;2.00;;;;;;;;5083450;27;45350;-81
2022/11/23 12:01:43;;;;;;;;;1.00;1.00;;;;;;;;5088912;27;45563;-81
2022/11/23 12:04:20;;;;;;;;;1.33;1.33;;;;;;;;5098696;27;45728;-84
2022/11/23 12:06:49;;;;;;;;;12.50;9.00;;;;;;;;5090264;27;47472;-84
2022/11/23 12:09:16;;;;;;;;;2.67;2.00;;;;;;;;5084387;27;45236;-82
2022/11/23 12:11:42;;;;;;;;;2.50;2.00;;;;;;;;5087999;27;45500;-82
2022/11/23 12:14:10;;;;;;;;;2.33;2.00;;;;;;;;5080665;27;45415;-81
2022/11/23 12:16:50;;;;;;;;;2.00;2.00;;;;;;;;5084399;27;45598;-80
2022/11/23 12:19:31;;;;;;;;;1.00;1.00;;;;;;;;5097297;27;45261;-81
2022/11/23 12:22:19;;;;;;;;;1.00;1.00;;;;;;;;5083058;27;45275;-81
2022/11/23 12:25:03;;;;;;;;;3.00;2.00;;;;;;;;5067972;27;45396;-82
2022/11/23 12:27:45;;;;;;;;;1.33;1.33;;;;;;;;5083680;27;45363;-83
2022/11/23 12:30:16;;;;;;;;;3.00;3.00;;;;;;;;5082025;27;45312;-81
2022/11/23 12:32:41;;;;;;;;;3.00;1.00;;;;;;;;5084901;27;45205;-81
2022/11/23 12:35:24;;;;;;;;;1.00;1.00;;;;;;;;5090070;27;45171;-82
2022/11/23 12:37:49;;;;;;;;;2.00;1.00;;;;;;;;5084027;27;45402;-80
2022/11/23 12:40:27;;;;;;;;;0.33;0.33;;;;;;;;5079253;27;45670;-81
2022/11/23 12:43:11;;;;;;;;;3.00;2.67;;;;;;;;5084584;27;45413;-81
2022/11/23 12:45:39;;;;;;;;;2.00;1.00;;;;;;;;5082490;27;45303;-80
2022/11/23 12:48:04;;;;;;;;;1.67;1.33;;;;;;;;5088481;27;45464;-80
2022/11/23 12:50:34;;;;;;;;;1.00;1.00;;;;;;;;5094805;27;45326;-81
2022/11/23 12:53:02;;;;;;;;;1.67;0.00;;;;;;;;5081861;27;45289;-81
2022/11/23 12:55:28;;;;;;;;;1.00;1.00;;;;;;;;5095698;27;45361;-79
2022/11/23 12:57:59;;;;;;;;;2.67;1.33;;;;;;;;5090557;27;45446;-80
2022/11/23 13:00:26;;;;;;;;;1.33;1.33;;;;;;;;5089361;27;45242;-81
2022/11/23 13:02:55;;;;;;;;;1.00;1.00;;;;;;;;5085577;27;45159;-80
2022/11/23 13:05:23;;;;;;;;;0.33;0.33;;;;;;;;5094605;27;45607;-82
2022/11/23 13:07:54;;;;;;;;;2.33;2.00;;;;;;;;5086632;27;46093;-80
2022/11/23 13:10:19;;;;;;;;;2.00;2.00;;;;;;;;5083962;27;45351;-81
2022/11/23 13:12:59;;;;;;;;;0.00;0.00;;;;;;;;5085614;27;45443;-80
2022/11/23 13:15:43;;;;;;;;;2.33;1.00;;;;;;;;5080340;27;45280;-80
2022/11/23 13:18:17;;;;;;;;;11.33;7.67;;;;;;;;5079548;27;45191;-80
2022/11/23 13:21:00;;;;;;;;;3.00;2.00;;;;;;;;5079803;27;45300;-80
2022/11/23 13:23:26;;;;;;;;;2.33;0.67;;;;;;;;5079377;27;45406;-80
2022/11/23 13:26:10;;;;;;;;;0.33;0.33;;;;;;;;5080646;27;45584;-80
2022/11/23 13:28:35;;;;;;;;;2.33;2.00;;;;;;;;5079658;27;45618;-80
2022/11/23 13:31:22;;;;;;;;;2.00;2.00;;;;;;;;5091394;27;45484;-79
2022/11/23 13:33:49;;;;;;;;;4.00;1.00;;;;;;;;5082758;27;45432;-80
2022/11/23 13:36:29;;;;;;;;;5.00;1.00;;;;;;;;5083697;27;45303;-79
2022/11/23 13:38:57;;;;;;;;;1.00;1.00;;;;;;;;5079484;27;46231;-79
2022/11/23 13:41:38;;;;;;;;;2.67;1.67;;;;;;;;5079558;27;45735;-78
2022/11/23 13:44:19;;;;;;;;;1.33;1.00;;;;;;;;5084130;27;45398;-79
2022/11/23 13:47:01;;;;;;;;;3.67;2.00;;;;;;;;5091058;27;46060;-79
2022/11/23 13:49:31;;;;;;;;;3.00;2.00;;;;;;;;5079582;27;45636;-79
2022/11/23 13:52:04;;;;;;;;;2.00;2.00;;;;;;;;5078382;27;45742;-79
2022/11/23 13:54:29;;;;;;;;;2.33;2.33;;;;;;;;5079990;27;45560;-80
2022/11/23 13:57:00;;;;;;;;;1.67;1.00;;;;;;;;5084894;27;45402;-79
2022/11/23 13:59:33;;;;;;;;;1.33;1.00;;;;;;;;5078917;27;47100;-80
2022/11/23 14:01:58;;;;;;;;;4.33;3.00;;;;;;;;5080417;27;45438;-80
2022/11/23 14:04:25;;;;;;;;;1.00;1.00;;;;;;;;5079108;27;45280;-80
2022/11/23 14:06:57;;;;;;;;;10.00;3.33;;;;;;;;5080694;27;45406;-80
2022/11/23 14:09:31;;;;;;;;;5.00;2.00;;;;;;;;5081856;27;45336;-81
2022/11/23 14:11:59;;;;;;;;;3.67;1.00;;;;;;;;5085530;27;45219;-80
2022/11/23 14:14:30;;;;;;;;;1.00;1.00;;;;;;;;5079077;27;45284;-80
2022/11/23 14:16:58;;;;;;;;;3.67;1.67;;;;;;;;5081201;27;45390;-80
2022/11/23 14:19:30;;;;;;;;;3.00;2.00;;;;;;;;5078845;27;45335;-80
2022/11/23 14:22:24;;;;;;;;;1.67;1.00;;;;;;;;5081674;27;45592;-80
2022/11/23 14:25:10;;;;;;;;;3.00;1.67;;;;;;;;5042272;28;45243;-80
2022/11/23 14:27:54;;;;;;;;;3.67;1.00;;;;;;;;5085160;27;45427;-80
2022/11/23 14:30:22;;;;;;;;;1.00;1.00;;;;;;;;5079789;27;45043;-79
2022/11/23 14:33:04;;;;;;;;;2.67;1.00;;;;;;;;5083484;27;45480;-79
2022/11/23 14:35:42;;;;;;;;;2.00;1.00;;;;;;;;5087116;27;45416;-79
2022/11/23 14:38:16;;;;;;;;;2.67;1.67;;;;;;;;5082088;27;45392;-81
2022/11/23 14:40:50;;;;;;;;;0.33;0.33;;;;;;;;5083904;27;46129;-81
2022/11/23 14:43:20;;;;;;;;;1.00;0.00;;;;;;;;5083238;27;45140;-80
2022/11/23 14:45:46;;;;;;;;;4.67;1.00;;;;;;;;5097099;27;45434;-81